^^
Station Historical Data
Daily Summary for August 28, 2021 Units:  English    Metric   Both
Daily Weekly Monthly Yearly
  High: Low: Average:
Temperature: 83.9 °F 71.5 °F 76 °F
Dew Point: 75.2 °F 67.9 °F 71.6 °F
Humidity: 92% 73% 86%
Wind Speed: 6mph 1mph 1.9mph
Wind Gust: 6mph - -
Wind- - SSE
Pressure: 30.09 in 30.01 in -
Precipitation: 0.14 in    
 
 
Tabular Data for August 28, 2021
Time Temperature Dew Point Pressure Wind Wind Speed Wind Gust Humidity Rainfall Rate (Hourly) solar
00:00 75.6 °F 72.1 °F 30.03 in ESE 3 mph 4 mph 89% 0.00 in 0 W/m2
00:05 75.5 °F 71.7 °F 30.03 in South 3 mph 4 mph 88% 0.00 in 0 W/m2
00:10 75.6 °F 72.1 °F 30.03 in West 3 mph 3 mph 89% 0.00 in 0 W/m2
00:15 75.7 °F 72.2 °F 30.03 in ESE 2 mph 3 mph 89% 0.00 in 0 W/m2
00:20 75.7 °F 71.9 °F 30.03 in SSE 2 mph 3 mph 88% 0.00 in 0 W/m2
00:25 75.8 °F 72.3 °F 30.03 in SE 3 mph 3 mph 89% 0.00 in 0 W/m2
00:30 75.9 °F 72.4 °F 30.03 in SE 3 mph 4 mph 89% 0.00 in 0 W/m2
00:35 76 °F 72.5 °F 30.02 in SSW 3 mph 4 mph 89% 0.00 in 0 W/m2
00:40 76.1 °F 72.3 °F 30.02 in West 3 mph 3 mph 88% 0.00 in 0 W/m2
00:45 76.2 °F 72.4 °F 30.03 in NE 2 mph 3 mph 88% 0.00 in 0 W/m2
00:50 76.2 °F 72.4 °F 30.03 in NW 2 mph 3 mph 88% 0.00 in 0 W/m2
00:55 76.2 °F 72 °F 30.03 in NNW 2 mph 3 mph 87% 0.00 in 0 W/m2
01:05 76.1 °F 72.3 °F 30.03 in West 2 mph 2 mph 88% 0.00 in 0 W/m2
01:10 76.2 °F 72.4 °F 30.03 in NE 2 mph 3 mph 88% 0.00 in 0 W/m2
01:20 76 °F 72.2 °F 30.02 in West 2 mph 2 mph 88% 0.00 in 0 W/m2
01:25 76.1 °F 72.3 °F 30.02 in East 2 mph 2 mph 88% 0.00 in 0 W/m2
01:30 75.9 °F 72.1 °F 30.02 in WNW 2 mph 2 mph 88% 0.00 in 0 W/m2
01:35 75.8 °F 72 °F 30.02 in NW 2 mph 2 mph 88% 0.00 in 0 W/m2
01:40 75.7 °F 71.9 °F 30.02 in WNW 2 mph 2 mph 88% 0.00 in 0 W/m2
01:45 75.6 °F 72.1 °F 30.03 in ESE 2 mph 4 mph 89% 0.00 in 0 W/m2
01:55 75.6 °F 72.1 °F 30.03 in NE 2 mph 3 mph 89% 0.00 in 0 W/m2
02:00 75.6 °F 72.1 °F 30.02 in NW 2 mph 2 mph 89% 0.00 in 0 W/m2
02:05 75.5 °F 72 °F 30.03 in East 1 mph 2 mph 89% 0.00 in 0 W/m2
02:15 75.5 °F 72 °F 30.03 in ENE 2 mph 2 mph 89% 0.00 in 0 W/m2
02:20 75.6 °F 71.8 °F 30.03 in NNW 2 mph 2 mph 88% 0.00 in 0 W/m2
02:25 75.6 °F 72.1 °F 30.02 in NNE 2 mph 2 mph 89% 0.00 in 0 W/m2
02:30 75.6 °F 72.1 °F 30.02 in North 2 mph 2 mph 89% 0.00 in 0 W/m2
02:35 75.5 °F 72 °F 30.02 in ESE 2 mph 3 mph 89% 0.00 in 0 W/m2
02:40 75.4 °F 71.9 °F 30.02 in SW 2 mph 4 mph 89% 0.00 in 0 W/m2
02:45 75.3 °F 71.8 °F 30.02 in WSW 2 mph 3 mph 89% 0.00 in 0 W/m2
02:50 75.2 °F 71.7 °F 30.02 in WNW 2 mph 3 mph 89% 0.00 in 0 W/m2
02:55 75.3 °F 71.8 °F 30.02 in NW 2 mph 2 mph 89% 0.00 in 0 W/m2
03:05 75.1 °F 71.6 °F 30.02 in NNW 2 mph 2 mph 89% 0.00 in 0 W/m2
03:10 75 °F 71.9 °F 30.02 in ESE 2 mph 2 mph 90% 0.00 in 0 W/m2
03:15 74.9 °F 71.8 °F 30.03 in NW 2 mph 2 mph 90% 0.00 in 0 W/m2
03:25 74.8 °F 71.7 °F 30.03 in NW 2 mph 2 mph 90% 0.00 in 0 W/m2
03:30 74.8 °F 72 °F 30.03 in East 2 mph 2 mph 91% 0.00 in 0 W/m2
03:40 74.7 °F 71.9 °F 30.03 in North 2 mph 2 mph 91% 0.00 in 0 W/m2
03:45 74.6 °F 71.8 °F 30.03 in ENE 2 mph 2 mph 91% 0.00 in 0 W/m2
03:50 74.7 °F 71.9 °F 30.03 in SE 2 mph 2 mph 91% 0.00 in 0 W/m2
04:00 74.7 °F 71.9 °F 30.03 in WNW 1 mph 1 mph 91% 0.00 in 0 W/m2
04:05 74.7 °F 72.2 °F 30.03 in ESE 2 mph 2 mph 92% 0.00 in 0 W/m2
04:15 74.6 °F 72.1 °F 30.03 in NNW 2 mph 2 mph 92% 0.00 in 0 W/m2
04:20 74.6 °F 72.1 °F 30.03 in NNW 2 mph 2 mph 92% 0.00 in 0 W/m2
04:30 74.6 °F 72.1 °F 30.03 in NW 1 mph 1 mph 92% 0.00 in 0 W/m2
04:45 74.6 °F 72.1 °F 30.03 in ENE 1 mph 2 mph 92% 0.00 in 0 W/m2
04:50 74.6 °F 72.1 °F 30.03 in West 1 mph 2 mph 92% 0.00 in 0 W/m2
04:55 74.6 °F 72.1 °F 30.03 in NNW 2 mph 2 mph 92% 0.00 in 0 W/m2
05:00 74.6 °F 72.1 °F 30.04 in NNW 2 mph 2 mph 92% 0.00 in 0 W/m2
05:05 74.6 °F 72.1 °F 30.04 in ENE 2 mph 2 mph 92% 0.00 in 0 W/m2
05:10 74.7 °F 72.2 °F 30.04 in NE 2 mph 3 mph 92% 0.00 in 0 W/m2
05:20 74.7 °F 72.2 °F 30.03 in NNE 2 mph 2 mph 92% 0.00 in 0 W/m2
05:25 74.8 °F 72.3 °F 30.03 in NNE 2 mph 3 mph 92% 0.00 in 0 W/m2
05:35 74.8 °F 72.3 °F 30.04 in North 2 mph 2 mph 92% 0.00 in 0 W/m2
05:40 74.8 °F 72.3 °F 30.04 in North 2 mph 2 mph 92% 0.00 in 0 W/m2
05:55 74.1 °F 71 °F 30.07 in West 5 mph 5 mph 90% 0.00 in 0 W/m2
06:00 73.1 °F 69.3 °F 30.08 in WSW 6 mph 6 mph 88% 0.00 in 0 W/m2
06:05 72.9 °F 68.8 °F 30.07 in West 4 mph 6 mph 87% 0.37 in 0 W/m2
06:10 72.6 °F 68.5 °F 30.06 in NW 4 mph 4 mph 87% 0.12 in 0 W/m2
06:15 72.3 °F 68.2 °F 30.06 in West 4 mph 5 mph 87% 0.11 in 0 W/m2
06:20 72.1 °F 68 °F 30.05 in West 3 mph 3 mph 87% 0.06 in 0 W/m2
06:25 72 °F 67.9 °F 30.05 in WNW 2 mph 3 mph 87% 0.05 in 0 W/m2
06:30 72 °F 67.9 °F 30.05 in WNW 1 mph 1 mph 87% 0.05 in 0 W/m2
06:40 71.8 °F 68.1 °F 30.05 in SSW 1 mph 1 mph 88% 0.00 in 0 W/m2
06:45 71.8 °F 68.1 °F 30.06 in West 2 mph 2 mph 88% 0.00 in 0 W/m2
06:55 72 °F 68.9 °F 30.06 in SW 2 mph 3 mph 90% 0.00 in 0 W/m2
07:00 72.1 °F 68.7 °F 30.07 in NW 2 mph 4 mph 89% 0.00 in 0 W/m2
07:05 71.9 °F 68.5 °F 30.07 in WNW 2 mph 4 mph 89% 0.00 in 0 W/m2
07:10 71.8 °F 68.4 °F 30.07 in NW 3 mph 3 mph 89% 0.00 in 0 W/m2
07:15 71.7 °F 68.3 °F 30.07 in WNW 3 mph 3 mph 89% 0.00 in 0 W/m2
07:20 71.7 °F 68.3 °F 30.08 in WSW 3 mph 3 mph 89% 0.00 in 0 W/m2
07:25 71.7 °F 68.3 °F 30.08 in NW 4 mph 4 mph 89% 0.00 in 5 W/m2
07:30 71.7 °F 68.3 °F 30.09 in NW 4 mph 4 mph 89% 0.00 in 7 W/m2
07:35 71.7 °F 68.3 °F 30.08 in WSW 5 mph 5 mph 89% 0.00 in 9 W/m2
07:40 71.6 °F 68.2 °F 30.08 in West 4 mph 4 mph 89% 0.00 in 11 W/m2
07:45 71.6 °F 67.9 °F 30.08 in West 4 mph 5 mph 88% 0.00 in 12 W/m2
08:00 71.5 °F 68.1 °F 30.07 in NNW 2 mph 2 mph 89% 0.00 in 18 W/m2
08:05 71.5 °F 68.1 °F 30.07 in West 2 mph 2 mph 89% 0.00 in 16 W/m2
08:15 71.8 °F 68.7 °F 30.05 in SSE 2 mph 2 mph 90% 0.30 in 14 W/m2
08:20 72.1 °F 69.3 °F 30.04 in SSW 2 mph 2 mph 91% 0.15 in 12 W/m2
08:25 72.3 °F 69.2 °F 30.03 in SE 1 mph 1 mph 90% 0.11 in 14 W/m2
08:30 72.5 °F 69.4 °F 30.03 in North 1 mph 1 mph 90% 0.10 in 21 W/m2
08:35 72.9 °F 70.1 °F 30.02 in NW 1 mph 1 mph 91% 0.05 in 32 W/m2
08:45 73 °F 70.2 °F 30.02 in East 1 mph 2 mph 91% 0.00 in 49 W/m2
08:50 72.8 °F 69.7 °F 30.02 in NE 1 mph 2 mph 90% 0.00 in 62 W/m2
09:00 72.8 °F 70 °F 30.02 in NNE 1 mph 1 mph 91% 0.00 in 93 W/m2
09:05 72.7 °F 69.9 °F 30.02 in NNE 1 mph 2 mph 91% 0.00 in 104 W/m2
09:10 72.6 °F 69.8 °F 30.03 in NNE 1 mph 1 mph 91% 0.00 in 105 W/m2
09:20 72.8 °F 70 °F 30.03 in NE 1 mph 1 mph 91% 0.00 in 114 W/m2
09:25 72.8 °F 70 °F 30.02 in ENE 2 mph 2 mph 91% 0.00 in 123 W/m2
09:30 73 °F 70.2 °F 30.02 in NE 2 mph 2 mph 91% 0.00 in 139 W/m2
09:35 73.1 °F 70 °F 30.02 in ENE 2 mph 2 mph 90% 0.00 in 250 W/m2
09:40 73.4 °F 70.3 °F 30.03 in NNW 2 mph 2 mph 90% 0.00 in 306 W/m2
09:45 73.5 °F 70.4 °F 30.03 in NNE 2 mph 2 mph 90% 0.00 in 339 W/m2
09:55 73.9 °F 70.5 °F 30.03 in NNE 2 mph 2 mph 89% 0.00 in 311 W/m2
10:00 74.1 °F 71 °F 30.03 in West 2 mph 2 mph 90% 0.00 in 411 W/m2
10:05 74.1 °F 70.3 °F 30.03 in ENE 2 mph 2 mph 88% 0.00 in 376 W/m2
10:10 74.3 °F 70.5 °F 30.03 in NE 2 mph 2 mph 88% 0.00 in 438 W/m2
10:15 74.3 °F 70.2 °F 30.04 in North 1 mph 2 mph 87% 0.00 in 376 W/m2
10:20 74.5 °F 70.4 °F 30.04 in NNE 1 mph 2 mph 87% 0.00 in 524 W/m2
10:30 74.8 °F 70.7 °F 30.04 in NE 1 mph 2 mph 87% 0.00 in 260 W/m2
10:35 74.9 °F 70.8 °F 30.04 in NE 1 mph 2 mph 87% 0.00 in 359 W/m2
10:45 75.3 °F 70.8 °F 30.04 in North 1 mph 1 mph 86% 0.00 in 450 W/m2
10:50 75.5 °F 70.7 °F 30.04 in NNE 1 mph 1 mph 85% 0.00 in 383 W/m2
10:55 75.7 °F 70.9 °F 30.04 in North 1 mph 2 mph 85% 0.00 in 710 W/m2
11:05 76.2 °F 71.4 °F 30.04 in NE 1 mph 2 mph 85% 0.00 in 497 W/m2
11:10 76.2 °F 71.4 °F 30.04 in NW 1 mph 2 mph 85% 0.00 in 633 W/m2
11:15 76.5 °F 71.7 °F 30.04 in NNE 1 mph 2 mph 85% 0.00 in 455 W/m2
11:20 76.7 °F 71.8 °F 30.04 in ENE 1 mph 2 mph 85% 0.00 in 701 W/m2
11:25 77 °F 72.1 °F 30.04 in NE 1 mph 1 mph 85% 0.00 in 613 W/m2
11:30 77.3 °F 72.1 °F 30.03 in NE 1 mph 1 mph 84% 0.00 in 585 W/m2
11:40 77.9 °F 72.7 °F 30.04 in NE 1 mph 1 mph 84% 0.00 in 610 W/m2
11:45 78.4 °F 73.2 °F 30.04 in North 1 mph 1 mph 84% 0.00 in 536 W/m2
11:55 79.3 °F 73.3 °F 30.04 in SSW 1 mph 1 mph 82% 0.00 in 865 W/m2
12:00 79.7 °F 73.3 °F 30.04 in South 1 mph 1 mph 81% 0.00 in 557 W/m2
12:05 79.7 °F 73.3 °F 30.04 in North 1 mph 1 mph 81% 0.00 in 744 W/m2
12:15 80.1 °F 73.4 °F 30.04 in SE 1 mph 1 mph 80% 0.00 in 626 W/m2
12:20 80.3 °F 73.9 °F 30.04 in SSW 1 mph 1 mph 81% 0.00 in 629 W/m2
12:26 80.3 °F 73.6 °F 30.04 in ESE 1 mph 2 mph 80% 0.00 in 559 W/m2
12:30 80.4 °F 72.9 °F 30.04 in South 1 mph 2 mph 78% 0.00 in 380 W/m2
12:35 80.5 °F 73 °F 30.04 in ESE 1 mph 2 mph 78% 0.00 in 408 W/m2
12:40 80.7 °F 73.2 °F 30.04 in SSE 1 mph 2 mph 78% 0.00 in 360 W/m2
12:50 80.9 °F 73 °F 30.04 in SSE 1 mph 2 mph 77% 0.00 in 399 W/m2
12:55 81 °F 72.7 °F 30.04 in SW 1 mph 2 mph 76% 0.00 in 297 W/m2
13:00 81.2 °F 73.3 °F 30.04 in NE 1 mph 1 mph 77% 0.00 in 621 W/m2
13:10 81.8 °F 73.5 °F 30.04 in West 1 mph 1 mph 76% 0.00 in 346 W/m2
13:15 81.9 °F 74 °F 30.04 in SW 2 mph 2 mph 77% 0.00 in 496 W/m2
13:25 81.6 °F 73.7 °F 30.04 in NW 2 mph 2 mph 77% 0.00 in 689 W/m2
13:30 82.1 °F 74.2 °F 30.04 in SW 1 mph 2 mph 77% 0.00 in 545 W/m2
13:35 82.4 °F 74.1 °F 30.04 in East 1 mph 1 mph 76% 0.00 in 735 W/m2
13:40 82.5 °F 74.6 °F 30.03 in ESE 1 mph 1 mph 77% 0.00 in 724 W/m2
13:45 82.5 °F 73.4 °F 30.03 in SE 1 mph 1 mph 74% 0.00 in 761 W/m2
13:55 83.9 °F 74.3 °F 30.04 in East 1 mph 3 mph 73% 0.00 in 689 W/m2
14:00 82.8 °F 75.2 °F 30.04 in NNW 2 mph 3 mph 78% 0.00 in 740 W/m2
14:05 82.2 °F 74.7 °F 30.03 in West 2 mph 3 mph 78% 0.00 in 768 W/m2
14:15 81.4 °F 74.3 °F 30.03 in NNE 2 mph 4 mph 79% 0.00 in 726 W/m2
14:20 81.3 °F 74.5 °F 30.03 in ENE 2 mph 4 mph 80% 0.00 in 738 W/m2
14:30 80.6 °F 73.9 °F 30.03 in ENE 2 mph 2 mph 80% 0.00 in 677 W/m2
14:35 80.2 °F 73.8 °F 30.03 in NE 2 mph 2 mph 81% 0.00 in 657 W/m2
14:45 80.9 °F 73.8 °F 30.02 in NNW 2 mph 2 mph 79% 0.00 in 705 W/m2
14:50 82 °F 75.2 °F 30.02 in North 2 mph 2 mph 80% 0.00 in 705 W/m2
14:55 81.8 °F 74.3 °F 30.02 in NNW 2 mph 2 mph 78% 0.00 in 700 W/m2
15:05 82.8 °F 74.8 °F 30.02 in NNW 2 mph 2 mph 77% 0.00 in 687 W/m2
15:10 82.8 °F 75.2 °F 30.02 in NE 2 mph 2 mph 78% 0.00 in 684 W/m2
15:15 82.9 °F 74.9 °F 30.02 in NW 2 mph 2 mph 77% 0.00 in 668 W/m2
15:20 82.7 °F 74.8 °F 30.02 in East 2 mph 2 mph 77% 0.00 in 603 W/m2
15:25 82.8 °F 74.8 °F 30.01 in ESE 1 mph 2 mph 77% 0.00 in 663 W/m2
Sand Point, Michigan, USA
Compliments of Weather Underground - 2 mb